sensor_id;sensor_type;location;lat;lon;timestamp;P1;durP1;ratioP1;P2;durP2;ratioP2
80910;SDS011;70359;51.420;7.032;2023-11-22T00:01:52;3.1;;;2.8;;
80910;SDS011;70359;51.420;7.032;2023-11-22T00:04:12;3.1;;;2.8;;
80910;SDS011;70359;51.420;7.032;2023-11-22T00:06:33;6.2;;;2.5;;
80910;SDS011;70359;51.420;7.032;2023-11-22T00:08:58;6.2;;;2.5;;
80910;SDS011;70359;51.420;7.032;2023-11-22T00:11:23;2.9;;;2.6;;
80910;SDS011;70359;51.420;7.032;2023-11-22T00:13:48;2.9;;;2.6;;
80910;SDS011;70359;51.420;7.032;2023-11-22T00:16:17;3.1;;;2.7;;
80910;SDS011;70359;51.420;7.032;2023-11-22T00:18:38;3.1;;;2.7;;
80910;SDS011;70359;51.420;7.032;2023-11-22T00:21:04;3.5;;;2.8;;
80910;SDS011;70359;51.420;7.032;2023-11-22T00:23:28;3.5;;;2.8;;
80910;SDS011;70359;51.420;7.032;2023-11-22T00:25:53;3.8;;;2.5;;
80910;SDS011;70359;51.420;7.032;2023-11-22T00:28:18;3.8;;;2.5;;
80910;SDS011;70359;51.420;7.032;2023-11-22T00:30:43;2.9;;;2.6;;
80910;SDS011;70359;51.420;7.032;2023-11-22T00:33:08;2.9;;;2.6;;
80910;SDS011;70359;51.420;7.032;2023-11-22T00:35:33;3;;;2.6;;
80910;SDS011;70359;51.420;7.032;2023-11-22T00:37:58;3;;;2.6;;
80910;SDS011;70359;51.420;7.032;2023-11-22T00:40:27;2.5;;;2.3;;
80910;SDS011;70359;51.420;7.032;2023-11-22T00:42:52;2.5;;;2.3;;
80910;SDS011;70359;51.420;7.032;2023-11-22T00:45:14;3.2;;;2.9;;
80910;SDS011;70359;51.420;7.032;2023-11-22T00:47:38;3.2;;;2.9;;
80910;SDS011;70359;51.420;7.032;2023-11-22T00:50:04;3.2;;;2.9;;
80910;SDS011;70359;51.420;7.032;2023-11-22T00:52:29;2.9;;;2.5;;
80910;SDS011;70359;51.420;7.032;2023-11-22T00:54:57;2.9;;;2.5;;
80910;SDS011;70359;51.420;7.032;2023-11-22T00:57:19;2.8;;;2.6;;
80910;SDS011;70359;51.420;7.032;2023-11-22T00:59:44;2.8;;;2.6;;
80910;SDS011;70359;51.420;7.032;2023-11-22T01:02:09;2.4;;;2.2;;
80910;SDS011;70359;51.420;7.032;2023-11-22T01:04:34;2.4;;;2.2;;
80910;SDS011;70359;51.420;7.032;2023-11-22T01:06:59;2.5;;;2.3;;
80910;SDS011;70359;51.420;7.032;2023-11-22T01:09:24;2.5;;;2.3;;
80910;SDS011;70359;51.420;7.032;2023-11-22T01:11:49;3.2;;;2.4;;
80910;SDS011;70359;51.420;7.032;2023-11-22T01:14:14;3.2;;;2.4;;
80910;SDS011;70359;51.420;7.032;2023-11-22T01:16:39;2.9;;;2.7;;
80910;SDS011;70359;51.420;7.032;2023-11-22T01:19:04;2.9;;;2.7;;
80910;SDS011;70359;51.420;7.032;2023-11-22T01:21:29;2.6;;;2.4;;
80910;SDS011;70359;51.420;7.032;2023-11-22T01:23:58;2.6;;;2.4;;
80910;SDS011;70359;51.420;7.032;2023-11-22T01:26:23;2.5;;;2.3;;
80910;SDS011;70359;51.420;7.032;2023-11-22T01:28:44;2.5;;;2.3;;
80910;SDS011;70359;51.420;7.032;2023-11-22T01:31:14;2.8;;;2.6;;
80910;SDS011;70359;51.420;7.032;2023-11-22T01:33:38;2.8;;;2.6;;
80910;SDS011;70359;51.420;7.032;2023-11-22T01:36:03;3.2;;;2.9;;
80910;SDS011;70359;51.420;7.032;2023-11-22T01:38:24;3.2;;;2.9;;
80910;SDS011;70359;51.420;7.032;2023-11-22T01:40:51;3.4;;;2.6;;
80910;SDS011;70359;51.420;7.032;2023-11-22T01:43:17;3.4;;;2.6;;
80910;SDS011;70359;51.420;7.032;2023-11-22T01:45:39;4.6;;;3.5;;
80910;SDS011;70359;51.420;7.032;2023-11-22T01:48:04;4.6;;;3.5;;
80910;SDS011;70359;51.420;7.032;2023-11-22T01:50:33;3.9;;;3.1;;
80910;SDS011;70359;51.420;7.032;2023-11-22T01:52:54;3.9;;;3.1;;
80910;SDS011;70359;51.420;7.032;2023-11-22T01:55:19;3.1;;;2.8;;
80910;SDS011;70359;51.420;7.032;2023-11-22T01:57:48;3.1;;;2.8;;
80910;SDS011;70359;51.420;7.032;2023-11-22T02:00:14;3.1;;;2.8;;
80910;SDS011;70359;51.420;7.032;2023-11-22T02:02:34;3.9;;;3.3;;
80910;SDS011;70359;51.420;7.032;2023-11-22T02:04:59;3.9;;;3.3;;
80910;SDS011;70359;51.420;7.032;2023-11-22T02:07:24;5.3;;;3.9;;
80910;SDS011;70359;51.420;7.032;2023-11-22T02:09:49;5.3;;;3.9;;
80910;SDS011;70359;51.420;7.032;2023-11-22T02:12:14;4.5;;;3.7;;
80910;SDS011;70359;51.420;7.032;2023-11-22T02:14:39;4.5;;;3.7;;
80910;SDS011;70359;51.420;7.032;2023-11-22T02:17:08;3.3;;;2.9;;
80910;SDS011;70359;51.420;7.032;2023-11-22T02:19:29;3.3;;;2.9;;
80910;SDS011;70359;51.420;7.032;2023-11-22T02:21:54;3.4;;;3.1;;
80910;SDS011;70359;51.420;7.032;2023-11-22T02:24:23;3.4;;;3.1;;
80910;SDS011;70359;51.420;7.032;2023-11-22T02:26:47;2.8;;;2.6;;
80910;SDS011;70359;51.420;7.032;2023-11-22T02:29:13;2.8;;;2.6;;
80910;SDS011;70359;51.420;7.032;2023-11-22T02:31:38;4.1;;;3.8;;
80910;SDS011;70359;51.420;7.032;2023-11-22T02:33:59;4.1;;;3.8;;
80910;SDS011;70359;51.420;7.032;2023-11-22T02:36:24;4.1;;;3.2;;
80910;SDS011;70359;51.420;7.032;2023-11-22T02:38:49;4.1;;;3.2;;
80910;SDS011;70359;51.420;7.032;2023-11-22T02:41:14;5;;;3.9;;
80910;SDS011;70359;51.420;7.032;2023-11-22T02:43:39;5;;;3.9;;
80910;SDS011;70359;51.420;7.032;2023-11-22T02:46:04;3.8;;;3.2;;
80910;SDS011;70359;51.420;7.032;2023-11-22T02:48:29;3.8;;;3.2;;
80910;SDS011;70359;51.420;7.032;2023-11-22T02:50:54;4.6;;;4;;
80910;SDS011;70359;51.420;7.032;2023-11-22T02:53:19;4.6;;;4;;
80910;SDS011;70359;51.420;7.032;2023-11-22T02:55:44;4.2;;;3.8;;
80910;SDS011;70359;51.420;7.032;2023-11-22T02:58:09;4.2;;;3.8;;
80910;SDS011;70359;51.420;7.032;2023-11-22T03:00:38;5.1;;;4.3;;
80910;SDS011;70359;51.420;7.032;2023-11-22T03:03:03;5.1;;;4.3;;
80910;SDS011;70359;51.420;7.032;2023-11-22T03:05:24;5.9;;;4.8;;
80910;SDS011;70359;51.420;7.032;2023-11-22T03:07:53;5.9;;;4.8;;
80910;SDS011;70359;51.420;7.032;2023-11-22T03:10:14;4.7;;;3.8;;
80910;SDS011;70359;51.420;7.032;2023-11-22T03:12:39;4.7;;;3.8;;
80910;SDS011;70359;51.420;7.032;2023-11-22T03:15:04;4.7;;;3.8;;
80910;SDS011;70359;51.420;7.032;2023-11-22T03:17:29;3.8;;;3.5;;
80910;SDS011;70359;51.420;7.032;2023-11-22T03:19:54;3.8;;;3.5;;
80910;SDS011;70359;51.420;7.032;2023-11-22T03:22:19;4.4;;;3.7;;
80910;SDS011;70359;51.420;7.032;2023-11-22T03:24:44;4.4;;;3.7;;
80910;SDS011;70359;51.420;7.032;2023-11-22T03:27:09;4.3;;;3.9;;
80910;SDS011;70359;51.420;7.032;2023-11-22T03:29:34;4.3;;;3.9;;
80910;SDS011;70359;51.420;7.032;2023-11-22T03:32:03;3.8;;;3.5;;
80910;SDS011;70359;51.420;7.032;2023-11-22T03:34:24;3.8;;;3.5;;
80910;SDS011;70359;51.420;7.032;2023-11-22T03:36:49;6;;;3.6;;
80910;SDS011;70359;51.420;7.032;2023-11-22T03:39:14;6;;;3.6;;
80910;SDS011;70359;51.420;7.032;2023-11-22T03:41:43;4.3;;;3.9;;
80910;SDS011;70359;51.420;7.032;2023-11-22T03:44:05;4.3;;;3.9;;
80910;SDS011;70359;51.420;7.032;2023-11-22T03:46:33;3.7;;;3.4;;
80910;SDS011;70359;51.420;7.032;2023-11-22T03:48:54;3.7;;;3.4;;
80910;SDS011;70359;51.420;7.032;2023-11-22T03:51:19;5.3;;;4;;
80910;SDS011;70359;51.420;7.032;2023-11-22T03:53:44;5.3;;;4;;
80910;SDS011;70359;51.420;7.032;2023-11-22T03:56:09;3.7;;;3.4;;
80910;SDS011;70359;51.420;7.032;2023-11-22T03:58:34;3.7;;;3.4;;
80910;SDS011;70359;51.420;7.032;2023-11-22T04:00:59;3.9;;;3.4;;
80910;SDS011;70359;51.420;7.032;2023-11-22T04:03:24;3.9;;;3.4;;
80910;SDS011;70359;51.420;7.032;2023-11-22T04:05:49;5.6;;;3.7;;
80910;SDS011;70359;51.420;7.032;2023-11-22T04:08:14;5.6;;;3.7;;
80910;SDS011;70359;51.420;7.032;2023-11-22T04:10:39;3.8;;;3.4;;
80910;SDS011;70359;51.420;7.032;2023-11-22T04:13:08;3.8;;;3.4;;
80910;SDS011;70359;51.420;7.032;2023-11-22T04:15:29;5.7;;;3.9;;
80910;SDS011;70359;51.420;7.032;2023-11-22T04:17:54;5.7;;;3.9;;
80910;SDS011;70359;51.420;7.032;2023-11-22T04:20:19;5.7;;;3.8;;
80910;SDS011;70359;51.420;7.032;2023-11-22T04:22:44;5.7;;;3.8;;
80910;SDS011;70359;51.420;7.032;2023-11-22T04:25:10;3.8;;;3.4;;
80910;SDS011;70359;51.420;7.032;2023-11-22T04:27:34;3.8;;;3.4;;
80910;SDS011;70359;51.420;7.032;2023-11-22T04:29:59;3.8;;;3.4;;
80910;SDS011;70359;51.420;7.032;2023-11-22T04:32:24;3.8;;;3.5;;
80910;SDS011;70359;51.420;7.032;2023-11-22T04:34:49;3.8;;;3.5;;
80910;SDS011;70359;51.420;7.032;2023-11-22T04:37:14;6.1;;;4.3;;
80910;SDS011;70359;51.420;7.032;2023-11-22T04:39:39;6.1;;;4.3;;
80910;SDS011;70359;51.420;7.032;2023-11-22T04:42:05;3.9;;;3.3;;
80910;SDS011;70359;51.420;7.032;2023-11-22T04:44:29;3.9;;;3.3;;
80910;SDS011;70359;51.420;7.032;2023-11-22T04:46:54;3.6;;;3.1;;
80910;SDS011;70359;51.420;7.032;2023-11-22T04:49:19;3.6;;;3.1;;
80910;SDS011;70359;51.420;7.032;2023-11-22T04:51:48;3.6;;;2.9;;
80910;SDS011;70359;51.420;7.032;2023-11-22T04:54:09;3.6;;;2.9;;
80910;SDS011;70359;51.420;7.032;2023-11-22T04:56:34;2.6;;;2.4;;
80910;SDS011;70359;51.420;7.032;2023-11-22T04:59:03;2.6;;;2.4;;
80910;SDS011;70359;51.420;7.032;2023-11-22T05:01:24;4.9;;;3.2;;
80910;SDS011;70359;51.420;7.032;2023-11-22T05:03:49;4.9;;;3.2;;
80910;SDS011;70359;51.420;7.032;2023-11-22T05:06:14;2.8;;;2.6;;
80910;SDS011;70359;51.420;7.032;2023-11-22T05:08:39;2.8;;;2.6;;
80910;SDS011;70359;51.420;7.032;2023-11-22T05:11:04;2.6;;;2.4;;
80910;SDS011;70359;51.420;7.032;2023-11-22T05:13:29;2.6;;;2.4;;
80910;SDS011;70359;51.420;7.032;2023-11-22T05:15:58;3.2;;;2.9;;
80910;SDS011;70359;51.420;7.032;2023-11-22T05:18:19;3.2;;;2.9;;
80910;SDS011;70359;51.420;7.032;2023-11-22T05:20:48;2.6;;;2.3;;
80910;SDS011;70359;51.420;7.032;2023-11-22T05:23:13;2.6;;;2.3;;
80910;SDS011;70359;51.420;7.032;2023-11-22T05:25:38;2.9;;;2.6;;
80910;SDS011;70359;51.420;7.032;2023-11-22T05:27:59;2.9;;;2.6;;
80910;SDS011;70359;51.420;7.032;2023-11-22T05:30:24;3.2;;;2.8;;
80910;SDS011;70359;51.420;7.032;2023-11-22T05:32:49;3.2;;;2.8;;
80910;SDS011;70359;51.420;7.032;2023-11-22T05:35:14;2.5;;;2.3;;
80910;SDS011;70359;51.420;7.032;2023-11-22T05:37:39;2.5;;;2.3;;
80910;SDS011;70359;51.420;7.032;2023-11-22T05:40:05;2.5;;;2.3;;
80910;SDS011;70359;51.420;7.032;2023-11-22T05:42:29;2.6;;;2.4;;
80910;SDS011;70359;51.420;7.032;2023-11-22T05:44:54;2.6;;;2.4;;
80910;SDS011;70359;51.420;7.032;2023-11-22T05:47:19;2.5;;;2.3;;
80910;SDS011;70359;51.420;7.032;2023-11-22T05:49:44;2.5;;;2.3;;
80910;SDS011;70359;51.420;7.032;2023-11-22T05:52:13;2.7;;;2.5;;
80910;SDS011;70359;51.420;7.032;2023-11-22T05:54:38;2.7;;;2.5;;
80910;SDS011;70359;51.420;7.032;2023-11-22T05:56:59;2.6;;;2;;
80910;SDS011;70359;51.420;7.032;2023-11-22T05:59:24;2.6;;;2;;
80910;SDS011;70359;51.420;7.032;2023-11-22T06:01:49;3.5;;;2.9;;
80910;SDS011;70359;51.420;7.032;2023-11-22T06:04:14;3.5;;;2.9;;
80910;SDS011;70359;51.420;7.032;2023-11-22T06:06:39;2.4;;;2.2;;
80910;SDS011;70359;51.420;7.032;2023-11-22T06:09:04;2.4;;;2.2;;
80910;SDS011;70359;51.420;7.032;2023-11-22T06:11:29;2.9;;;2.6;;
80910;SDS011;70359;51.420;7.032;2023-11-22T06:13:54;2.9;;;2.6;;
80910;SDS011;70359;51.420;7.032;2023-11-22T06:16:19;2.5;;;2.2;;
80910;SDS011;70359;51.420;7.032;2023-11-22T06:18:44;2.5;;;2.2;;
80910;SDS011;70359;51.420;7.032;2023-11-22T06:21:09;4.2;;;2.5;;
80910;SDS011;70359;51.420;7.032;2023-11-22T06:23:34;4.2;;;2.5;;
80910;SDS011;70359;51.420;7.032;2023-11-22T06:25:59;4.1;;;2.3;;
80910;SDS011;70359;51.420;7.032;2023-11-22T06:28:24;4.1;;;2.3;;
80910;SDS011;70359;51.420;7.032;2023-11-22T06:30:49;3.5;;;2.9;;
80910;SDS011;70359;51.420;7.032;2023-11-22T06:33:14;3.5;;;2.9;;
80910;SDS011;70359;51.420;7.032;2023-11-22T06:35:39;3.2;;;2.4;;
80910;SDS011;70359;51.420;7.032;2023-11-22T06:38:04;3.2;;;2.4;;
80910;SDS011;70359;51.420;7.032;2023-11-22T06:40:29;2.7;;;2.5;;
80910;SDS011;70359;51.420;7.032;2023-11-22T06:42:58;2.7;;;2.5;;
80910;SDS011;70359;51.420;7.032;2023-11-22T06:45:23;3.4;;;2.7;;
80910;SDS011;70359;51.420;7.032;2023-11-22T06:47:44;3.4;;;2.7;;
80910;SDS011;70359;51.420;7.032;2023-11-22T06:50:10;2.8;;;2.5;;
80910;SDS011;70359;51.420;7.032;2023-11-22T06:52:34;2.8;;;2.5;;
80910;SDS011;70359;51.420;7.032;2023-11-22T06:54:59;2.8;;;2.5;;
80910;SDS011;70359;51.420;7.032;2023-11-22T06:57:24;3.6;;;2.3;;
80910;SDS011;70359;51.420;7.032;2023-11-22T06:59:49;3.6;;;2.3;;
80910;SDS011;70359;51.420;7.032;2023-11-22T07:02:14;4.8;;;2.5;;
80910;SDS011;70359;51.420;7.032;2023-11-22T07:04:43;4.8;;;2.5;;
80910;SDS011;70359;51.420;7.032;2023-11-22T07:07:04;2.4;;;2.2;;
80910;SDS011;70359;51.420;7.032;2023-11-22T07:09:29;2.4;;;2.2;;
80910;SDS011;70359;51.420;7.032;2023-11-22T07:11:58;2.5;;;2.3;;
80910;SDS011;70359;51.420;7.032;2023-11-22T07:14:19;2.5;;;2.3;;
80910;SDS011;70359;51.420;7.032;2023-11-22T07:16:44;2.4;;;2.2;;
80910;SDS011;70359;51.420;7.032;2023-11-22T07:19:09;2.4;;;2.2;;
80910;SDS011;70359;51.420;7.032;2023-11-22T07:21:34;5.4;;;3;;
80910;SDS011;70359;51.420;7.032;2023-11-22T07:23:59;5.4;;;3;;
80910;SDS011;70359;51.420;7.032;2023-11-22T07:26:24;2.5;;;2.3;;
80910;SDS011;70359;51.420;7.032;2023-11-22T07:28:53;2.5;;;2.3;;
80910;SDS011;70359;51.420;7.032;2023-11-22T07:31:18;3.2;;;2.8;;
80910;SDS011;70359;51.420;7.032;2023-11-22T07:33:39;3.2;;;2.8;;
80910;SDS011;70359;51.420;7.032;2023-11-22T07:36:05;4.1;;;3.5;;
80910;SDS011;70359;51.420;7.032;2023-11-22T07:38:29;4.1;;;3.5;;
80910;SDS011;70359;51.420;7.032;2023-11-22T07:40:58;3.4;;;3.1;;
80910;SDS011;70359;51.420;7.032;2023-11-22T07:43:19;3.4;;;3.1;;
80910;SDS011;70359;51.420;7.032;2023-11-22T07:45:44;4;;;2.9;;
80910;SDS011;70359;51.420;7.032;2023-11-22T07:48:10;4;;;2.9;;
80910;SDS011;70359;51.420;7.032;2023-11-22T07:50:38;3.3;;;2.7;;
80910;SDS011;70359;51.420;7.032;2023-11-22T07:53:03;3.3;;;2.7;;
80910;SDS011;70359;51.420;7.032;2023-11-22T07:55:24;3.2;;;2.9;;
80910;SDS011;70359;51.420;7.032;2023-11-22T07:57:49;3.2;;;2.9;;
80910;SDS011;70359;51.420;7.032;2023-11-22T08:00:15;2.5;;;2.3;;
80910;SDS011;70359;51.420;7.032;2023-11-22T08:02:39;2.5;;;2.3;;
80910;SDS011;70359;51.420;7.032;2023-11-22T08:05:06;2.7;;;2.5;;
80910;SDS011;70359;51.420;7.032;2023-11-22T08:07:33;2.7;;;2.5;;
80910;SDS011;70359;51.420;7.032;2023-11-22T08:09:54;2.7;;;2.5;;
80910;SDS011;70359;51.420;7.032;2023-11-22T08:12:23;13.5;;;3;;
80910;SDS011;70359;51.420;7.032;2023-11-22T08:14:44;13.5;;;3;;
80910;SDS011;70359;51.420;7.032;2023-11-22T08:17:13;2.6;;;2.3;;
80910;SDS011;70359;51.420;7.032;2023-11-22T08:19:34;2.6;;;2.3;;
80910;SDS011;70359;51.420;7.032;2023-11-22T08:21:59;2.8;;;2.6;;
80910;SDS011;70359;51.420;7.032;2023-11-22T08:24:24;2.8;;;2.6;;
80910;SDS011;70359;51.420;7.032;2023-11-22T08:26:49;2.7;;;2.4;;
80910;SDS011;70359;51.420;7.032;2023-11-22T08:29:14;2.7;;;2.4;;
80910;SDS011;70359;51.420;7.032;2023-11-22T08:31:39;6.8;;;2.9;;
80910;SDS011;70359;51.420;7.032;2023-11-22T08:34:08;6.8;;;2.9;;
80910;SDS011;70359;51.420;7.032;2023-11-22T08:36:34;3.7;;;2.6;;
80910;SDS011;70359;51.420;7.032;2023-11-22T08:38:54;3.7;;;2.6;;
80910;SDS011;70359;51.420;7.032;2023-11-22T08:41:19;2.8;;;2.3;;
80910;SDS011;70359;51.420;7.032;2023-11-22T08:43:44;2.8;;;2.3;;
80910;SDS011;70359;51.420;7.032;2023-11-22T08:46:16;3.2;;;2.8;;
80910;SDS011;70359;51.420;7.032;2023-11-22T08:48:34;3.2;;;2.8;;
80910;SDS011;70359;51.420;7.032;2023-11-22T08:51:00;3.3;;;3;;
80910;SDS011;70359;51.420;7.032;2023-11-22T08:53:24;3.3;;;3;;
80910;SDS011;70359;51.420;7.032;2023-11-22T08:55:50;3.9;;;2.7;;
80910;SDS011;70359;51.420;7.032;2023-11-22T08:58:15;3.9;;;2.7;;
80910;SDS011;70359;51.420;7.032;2023-11-22T09:00:40;3.4;;;3.1;;
80910;SDS011;70359;51.420;7.032;2023-11-22T09:03:05;3.4;;;3.1;;
80910;SDS011;70359;51.420;7.032;2023-11-22T09:05:33;6.4;;;3.3;;
80910;SDS011;70359;51.420;7.032;2023-11-22T09:07:55;6.4;;;3.3;;
80910;SDS011;70359;51.420;7.032;2023-11-22T09:10:24;3.3;;;2.8;;
80910;SDS011;70359;51.420;7.032;2023-11-22T09:12:45;3.3;;;2.8;;
80910;SDS011;70359;51.420;7.032;2023-11-22T09:15:11;2.8;;;2.6;;
80910;SDS011;70359;51.420;7.032;2023-11-22T09:17:35;2.8;;;2.6;;
80910;SDS011;70359;51.420;7.032;2023-11-22T09:20:00;2.8;;;2.6;;
80910;SDS011;70359;51.420;7.032;2023-11-22T09:22:25;3.1;;;2.8;;
80910;SDS011;70359;51.420;7.032;2023-11-22T09:24:50;3.1;;;2.8;;
80910;SDS011;70359;51.420;7.032;2023-11-22T09:27:15;4.1;;;3.2;;
80910;SDS011;70359;51.420;7.032;2023-11-22T09:29:40;4.1;;;3.2;;
80910;SDS011;70359;51.420;7.032;2023-11-22T09:32:09;2.4;;;2.2;;
80910;SDS011;70359;51.420;7.032;2023-11-22T09:34:30;2.4;;;2.2;;
80910;SDS011;70359;51.420;7.032;2023-11-22T09:36:55;3.9;;;2.4;;
80910;SDS011;70359;51.420;7.032;2023-11-22T09:39:20;3.9;;;2.4;;
80910;SDS011;70359;51.420;7.032;2023-11-22T09:41:49;3.1;;;2.6;;
80910;SDS011;70359;51.420;7.032;2023-11-22T09:44:10;3.1;;;2.6;;
80910;SDS011;70359;51.420;7.032;2023-11-22T09:46:39;1.8;;;1.7;;
80910;SDS011;70359;51.420;7.032;2023-11-22T09:49:00;1.8;;;1.7;;
80910;SDS011;70359;51.420;7.032;2023-11-22T09:51:27;2.8;;;2.2;;
80910;SDS011;70359;51.420;7.032;2023-11-22T09:53:52;2.8;;;2.2;;
80910;SDS011;70359;51.420;7.032;2023-11-22T09:56:15;2.4;;;1.8;;
80910;SDS011;70359;51.420;7.032;2023-11-22T09:58:41;2.4;;;1.8;;
80910;SDS011;70359;51.420;7.032;2023-11-22T10:01:05;1.3;;;1.2;;
80910;SDS011;70359;51.420;7.032;2023-11-22T10:03:30;1.3;;;1.2;;
80910;SDS011;70359;51.420;7.032;2023-11-22T10:05:55;5.5;;;2.1;;
80910;SDS011;70359;51.420;7.032;2023-11-22T10:08:20;5.5;;;2.1;;
80910;SDS011;70359;51.420;7.032;2023-11-22T10:10:45;2.6;;;1.9;;
80910;SDS011;70359;51.420;7.032;2023-11-22T10:13:10;2.6;;;1.9;;
80910;SDS011;70359;51.420;7.032;2023-11-22T10:15:39;2.4;;;2.1;;
80910;SDS011;70359;51.420;7.032;2023-11-22T10:18:00;2.4;;;2.1;;
80910;SDS011;70359;51.420;7.032;2023-11-22T10:20:25;2.1;;;1.9;;
80910;SDS011;70359;51.420;7.032;2023-11-22T10:22:50;2.1;;;1.9;;
80910;SDS011;70359;51.420;7.032;2023-11-22T10:25:15;1.6;;;1.5;;
80910;SDS011;70359;51.420;7.032;2023-11-22T10:27:40;1.6;;;1.5;;
80910;SDS011;70359;51.420;7.032;2023-11-22T10:30:06;2.7;;;2.1;;
80910;SDS011;70359;51.420;7.032;2023-11-22T10:32:30;2.7;;;2.1;;
80910;SDS011;70359;51.420;7.032;2023-11-22T10:34:55;2.7;;;2.1;;
80910;SDS011;70359;51.420;7.032;2023-11-22T10:37:20;1.6;;;1.5;;
80910;SDS011;70359;51.420;7.032;2023-11-22T10:39:50;1.6;;;1.5;;
80910;SDS011;70359;51.420;7.032;2023-11-22T10:42:10;1.9;;;1.7;;
80910;SDS011;70359;51.420;7.032;2023-11-22T10:44:35;1.9;;;1.7;;
80910;SDS011;70359;51.420;7.032;2023-11-22T10:47:00;3.6;;;2.1;;
80910;SDS011;70359;51.420;7.032;2023-11-22T10:49:29;3.6;;;2.1;;
80910;SDS011;70359;51.420;7.032;2023-11-22T10:51:51;2.9;;;1.9;;
80910;SDS011;70359;51.420;7.032;2023-11-22T10:54:19;2.9;;;1.9;;
80910;SDS011;70359;51.420;7.032;2023-11-22T10:56:42;2.5;;;2;;
80910;SDS011;70359;51.420;7.032;2023-11-22T10:59:13;2.5;;;2;;
80910;SDS011;70359;51.420;7.032;2023-11-22T11:01:30;1.8;;;1.7;;
80910;SDS011;70359;51.420;7.032;2023-11-22T11:04:00;1.8;;;1.7;;
80910;SDS011;70359;51.420;7.032;2023-11-22T11:06:24;2.6;;;2.3;;
80910;SDS011;70359;51.420;7.032;2023-11-22T11:08:49;2.6;;;2.3;;
80910;SDS011;70359;51.420;7.032;2023-11-22T11:11:14;1.7;;;1.6;;
80910;SDS011;70359;51.420;7.032;2023-11-22T11:13:35;1.7;;;1.6;;
80910;SDS011;70359;51.420;7.032;2023-11-22T11:16:00;2.7;;;1.8;;
80910;SDS011;70359;51.420;7.032;2023-11-22T11:18:30;2.7;;;1.8;;
80910;SDS011;70359;51.420;7.032;2023-11-22T11:20:50;2;;;1.8;;
80910;SDS011;70359;51.420;7.032;2023-11-22T11:23:15;2;;;1.8;;
80910;SDS011;70359;51.420;7.032;2023-11-22T11:25:45;2.3;;;2;;
80910;SDS011;70359;51.420;7.032;2023-11-22T11:28:05;2.3;;;2;;
80910;SDS011;70359;51.420;7.032;2023-11-22T11:30:48;1.4;;;1.3;;
80910;SDS011;70359;51.420;7.032;2023-11-22T11:32:55;1.4;;;1.3;;
80910;SDS011;70359;51.420;7.032;2023-11-22T11:35:41;1.7;;;1.5;;
80910;SDS011;70359;51.420;7.032;2023-11-22T11:37:46;1.7;;;1.5;;
80910;SDS011;70359;51.420;7.032;2023-11-22T11:40:32;2;;;1.5;;
80910;SDS011;70359;51.420;7.032;2023-11-22T11:42:39;2;;;1.5;;
80910;SDS011;70359;51.420;7.032;2023-11-22T11:45:10;2;;;1.5;;
80910;SDS011;70359;51.420;7.032;2023-11-22T11:47:29;1.8;;;1.7;;
80910;SDS011;70359;51.420;7.032;2023-11-22T11:49:56;1.8;;;1.7;;
80910;SDS011;70359;51.420;7.032;2023-11-22T11:52:19;1.7;;;1.4;;
80910;SDS011;70359;51.420;7.032;2023-11-22T11:54:44;1.7;;;1.4;;
80910;SDS011;70359;51.420;7.032;2023-11-22T11:57:05;1.6;;;1.5;;
80910;SDS011;70359;51.420;7.032;2023-11-22T11:59:30;1.6;;;1.5;;
80910;SDS011;70359;51.420;7.032;2023-11-22T12:01:56;2.8;;;1.4;;
80910;SDS011;70359;51.420;7.032;2023-11-22T12:04:20;2.8;;;1.4;;
80910;SDS011;70359;51.420;7.032;2023-11-22T12:06:45;3.3;;;1.7;;
80910;SDS011;70359;51.420;7.032;2023-11-22T12:09:10;3.3;;;1.7;;
80910;SDS011;70359;51.420;7.032;2023-11-22T12:11:35;1.7;;;1.6;;
80910;SDS011;70359;51.420;7.032;2023-11-22T12:14:00;1.7;;;1.6;;
80910;SDS011;70359;51.420;7.032;2023-11-22T12:16:25;1.6;;;1.5;;
80910;SDS011;70359;51.420;7.032;2023-11-22T12:18:50;1.6;;;1.5;;
80910;SDS011;70359;51.420;7.032;2023-11-22T12:21:15;1.5;;;1.4;;
80910;SDS011;70359;51.420;7.032;2023-11-22T12:23:41;1.5;;;1.4;;
80910;SDS011;70359;51.420;7.032;2023-11-22T12:26:09;2.2;;;1.8;;
80910;SDS011;70359;51.420;7.032;2023-11-22T12:28:30;2.2;;;1.8;;
80910;SDS011;70359;51.420;7.032;2023-11-22T12:31:12;1.6;;;1.5;;
80910;SDS011;70359;51.420;7.032;2023-11-22T12:33:20;1.6;;;1.5;;
80910;SDS011;70359;51.420;7.032;2023-11-22T12:35:45;1.4;;;1.3;;
80910;SDS011;70359;51.420;7.032;2023-11-22T12:38:10;1.4;;;1.3;;
80910;SDS011;70359;51.420;7.032;2023-11-22T12:40:44;1.7;;;1.6;;
80910;SDS011;70359;51.420;7.032;2023-11-22T12:43:04;1.7;;;1.6;;
80910;SDS011;70359;51.420;7.032;2023-11-22T12:45:26;1.7;;;1.5;;
80910;SDS011;70359;51.420;7.032;2023-11-22T12:47:50;1.7;;;1.5;;
80910;SDS011;70359;51.420;7.032;2023-11-22T12:50:28;1.6;;;1.3;;
80910;SDS011;70359;51.420;7.032;2023-11-22T12:52:44;1.6;;;1.3;;
80910;SDS011;70359;51.420;7.032;2023-11-22T12:55:06;1.8;;;1.6;;
80910;SDS011;70359;51.420;7.032;2023-11-22T12:57:30;1.8;;;1.6;;
80910;SDS011;70359;51.420;7.032;2023-11-22T12:59:59;1.8;;;1.6;;
80910;SDS011;70359;51.420;7.032;2023-11-22T13:02:24;1.7;;;1.6;;
80910;SDS011;70359;51.420;7.032;2023-11-22T13:04:49;1.7;;;1.6;;
80910;SDS011;70359;51.420;7.032;2023-11-22T13:07:14;1.2;;;1.1;;
80910;SDS011;70359;51.420;7.032;2023-11-22T13:09:35;1.2;;;1.1;;
80910;SDS011;70359;51.420;7.032;2023-11-22T13:12:00;1.5;;;1.3;;
80910;SDS011;70359;51.420;7.032;2023-11-22T13:14:25;1.5;;;1.3;;
80910;SDS011;70359;51.420;7.032;2023-11-22T13:16:50;2.1;;;1.6;;
80910;SDS011;70359;51.420;7.032;2023-11-22T13:19:19;2.1;;;1.6;;
80910;SDS011;70359;51.420;7.032;2023-11-22T13:21:44;1.2;;;1.1;;
80910;SDS011;70359;51.420;7.032;2023-11-22T13:24:06;1.2;;;1.1;;
80910;SDS011;70359;51.420;7.032;2023-11-22T13:26:31;2.5;;;1.5;;
80910;SDS011;70359;51.420;7.032;2023-11-22T13:28:55;2.5;;;1.5;;
80910;SDS011;70359;51.420;7.032;2023-11-22T13:31:20;1.6;;;1.3;;
80910;SDS011;70359;51.420;7.032;2023-11-22T13:33:45;1.6;;;1.3;;
80910;SDS011;70359;51.420;7.032;2023-11-22T13:36:10;1.1;;;1;;
80910;SDS011;70359;51.420;7.032;2023-11-22T13:38:35;1.1;;;1;;
80910;SDS011;70359;51.420;7.032;2023-11-22T13:41:00;2.7;;;1.7;;
80910;SDS011;70359;51.420;7.032;2023-11-22T13:43:25;2.7;;;1.7;;
80910;SDS011;70359;51.420;7.032;2023-11-22T13:45:50;1.2;;;1.1;;
80910;SDS011;70359;51.420;7.032;2023-11-22T13:48:19;1.2;;;1.1;;
80910;SDS011;70359;51.420;7.032;2023-11-22T13:50:40;1.3;;;1.2;;
80910;SDS011;70359;51.420;7.032;2023-11-22T13:53:05;1.3;;;1.2;;
80910;SDS011;70359;51.420;7.032;2023-11-22T13:55:30;1.4;;;1.1;;
80910;SDS011;70359;51.420;7.032;2023-11-22T13:57:56;1.4;;;1.1;;
80910;SDS011;70359;51.420;7.032;2023-11-22T14:00:21;1.4;;;1.1;;
80910;SDS011;70359;51.420;7.032;2023-11-22T14:02:45;1.4;;;1.1;;
80910;SDS011;70359;51.420;7.032;2023-11-22T14:05:10;1.5;;;1.2;;
80910;SDS011;70359;51.420;7.032;2023-11-22T14:07:35;1.5;;;1.2;;
80910;SDS011;70359;51.420;7.032;2023-11-22T14:10:00;1.5;;;1.2;;
80910;SDS011;70359;51.420;7.032;2023-11-22T14:12:25;0.7;;;0.7;;
80910;SDS011;70359;51.420;7.032;2023-11-22T14:14:50;0.7;;;0.7;;
80910;SDS011;70359;51.420;7.032;2023-11-22T14:17:15;1.2;;;1.1;;
80910;SDS011;70359;51.420;7.032;2023-11-22T14:19:40;1.2;;;1.1;;
80910;SDS011;70359;51.420;7.032;2023-11-22T14:22:05;0.9;;;0.9;;
80910;SDS011;70359;51.420;7.032;2023-11-22T14:24:30;0.9;;;0.9;;
80910;SDS011;70359;51.420;7.032;2023-11-22T14:26:55;1.4;;;1.3;;
80910;SDS011;70359;51.420;7.032;2023-11-22T14:29:20;1.4;;;1.3;;
80910;SDS011;70359;51.420;7.032;2023-11-22T14:31:49;0.8;;;0.8;;
80910;SDS011;70359;51.420;7.032;2023-11-22T14:34:10;0.8;;;0.8;;
80910;SDS011;70359;51.420;7.032;2023-11-22T14:36:39;2.3;;;1.3;;
80910;SDS011;70359;51.420;7.032;2023-11-22T14:39:00;2.3;;;1.3;;
80910;SDS011;70359;51.420;7.032;2023-11-22T14:41:25;0.9;;;0.9;;
80910;SDS011;70359;51.420;7.032;2023-11-22T14:43:50;0.9;;;0.9;;
80910;SDS011;70359;51.420;7.032;2023-11-22T14:46:15;2.8;;;1.4;;
80910;SDS011;70359;51.420;7.032;2023-11-22T14:48:40;2.8;;;1.4;;
80910;SDS011;70359;51.420;7.032;2023-11-22T14:51:05;1.3;;;1.2;;
80910;SDS011;70359;51.420;7.032;2023-11-22T14:53:30;1.3;;;1.2;;
80910;SDS011;70359;51.420;7.032;2023-11-22T14:55:55;1.3;;;1.2;;
80910;SDS011;70359;51.420;7.032;2023-11-22T14:58:20;1.3;;;1.2;;
80910;SDS011;70359;51.420;7.032;2023-11-22T15:00:45;1.6;;;1.3;;
80910;SDS011;70359;51.420;7.032;2023-11-22T15:03:10;1.6;;;1.3;;